Terminal Aerodrome Forecast
Issued by NWS

Home | Current Version | Previous Version | Text Only | Print | Product List | Glossary On
Versions: 1 2 3 4 5 6 7 8 9 10 11 12 13 14 15 16
260
FTUS44 KSJT 271138
TAFJCT
TAF
KJCT 271138Z 2712/2812 VRB03KT P6SM BKN014
     FM271600 17008KT P6SM SCT040
     FM271800 16009KT P6SM VCTS SCT070CB
     FM280000 16006KT P6SM FEW120 SCT250=

USA.gov is the U.S. government's official web portal to all federal, state and local government web resources and services.